createdAt,value
2023-05-19T00:00:33.324Z,72.20
2023-05-19T00:05:40.948Z,72.80
2023-05-19T00:10:44.614Z,73.00
2023-05-19T00:15:47.334Z,73.80
2023-05-19T00:20:50.034Z,74.80
2023-05-19T00:25:54.083Z,74.80
2023-05-19T00:30:56.650Z,73.90
2023-05-19T00:35:59.247Z,74.60
2023-05-19T00:41:03.182Z,75.10
2023-05-19T00:46:07.270Z,75.40
2023-05-19T00:51:10.369Z,75.20
2023-05-19T00:56:12.731Z,75.70
2023-05-19T01:01:17.214Z,76.70
2023-05-19T01:06:20.903Z,76.80
2023-05-19T01:11:24.871Z,75.30
2023-05-19T01:16:32.214Z,75.60
2023-05-19T01:21:58.872Z,75.70
2023-05-19T01:27:41.855Z,75.10
2023-05-19T01:32:46.853Z,75.00
2023-05-19T01:37:52.260Z,76.00
2023-05-19T01:42:57.755Z,77.40
2023-05-19T01:48:04.311Z,78.10
2023-05-19T01:53:07.020Z,79.30
2023-05-19T01:58:31.676Z,79.60
2023-05-19T02:04:00.815Z,79.70
2023-05-19T02:09:12.054Z,81.00
2023-05-19T02:14:21.288Z,82.40
2023-05-19T02:19:31.039Z,82.80
2023-05-19T02:24:33.449Z,82.30
2023-05-19T02:29:35.837Z,82.10
2023-05-19T02:34:38.285Z,82.30
2023-05-19T02:39:41.736Z,82.80
2023-05-19T02:44:44.298Z,84.60
2023-05-19T02:49:47.780Z,85.80
2023-05-19T02:54:51.471Z,86.90
2023-05-19T02:59:53.839Z,87.30
2023-05-19T03:04:56.392Z,88.00
2023-05-19T03:09:58.820Z,88.10
2023-05-19T03:15:01.859Z,87.40
2023-05-19T03:20:05.490Z,86.60
2023-05-19T03:25:08.224Z,87.00
2023-05-19T03:30:11.538Z,87.90
2023-05-19T03:35:27.877Z,87.90
2023-05-19T03:40:30.869Z,87.80
2023-05-19T03:45:39.884Z,87.10
2023-05-19T03:51:02.163Z,86.40
2023-05-19T03:56:05.443Z,86.10
2023-05-19T04:01:10.827Z,86.50
2023-05-19T04:06:13.340Z,86.90
2023-05-19T04:11:15.798Z,86.00
2023-05-19T04:16:18.282Z,85.40
2023-05-19T04:21:22.426Z,84.40
2023-05-19T04:26:26.458Z,84.00
2023-05-19T04:31:29.920Z,82.80
2023-05-19T04:36:34.129Z,82.80
2023-05-19T04:41:40.452Z,81.70
2023-05-19T04:46:45.327Z,80.80
2023-05-19T04:51:50.412Z,79.50
2023-05-19T04:56:56.733Z,78.90
2023-05-19T05:02:02.264Z,78.10
2023-05-19T05:07:06.519Z,77.30
2023-05-19T05:12:10.414Z,74.80
2023-05-19T05:17:16.524Z,74.20
2023-05-19T05:22:19.492Z,73.10
2023-05-19T05:27:21.920Z,72.60
2023-05-19T05:32:25.327Z,72.20
2023-05-19T05:37:28.256Z,74.00
2023-05-19T05:42:31.310Z,73.00
2023-05-19T05:47:34.471Z,72.50
2023-05-19T05:52:38.252Z,72.80
2023-05-19T05:57:43.959Z,72.50
2023-05-19T06:02:49.404Z,72.10
2023-05-19T06:07:53.322Z,70.90
2023-05-19T06:13:01.496Z,69.80
2023-05-19T06:18:04.652Z,68.40
2023-05-19T06:23:07.283Z,68.00
2023-05-19T06:28:09.881Z,69.00
2023-05-19T06:33:13.173Z,67.50
2023-05-19T06:38:15.576Z,67.80
2023-05-19T06:43:18.013Z,67.30
2023-05-19T06:48:31.850Z,67.10
2023-05-19T06:53:35.327Z,68.00
2023-05-19T06:58:42.437Z,66.90
2023-05-19T07:03:46.900Z,67.30
2023-05-19T07:08:50.869Z,67.10
2023-05-19T07:13:54.255Z,66.50
2023-05-19T07:19:03.066Z,67.00
2023-05-19T07:24:05.904Z,66.80
2023-05-19T07:29:08.812Z,65.50
2023-05-19T07:34:11.322Z,64.80
2023-05-19T07:39:13.808Z,64.60
2023-05-19T07:44:16.221Z,63.20
2023-05-19T07:49:18.630Z,61.90
2023-05-19T07:54:21.406Z,63.10
2023-05-19T07:59:24.932Z,64.50
2023-05-19T08:04:27.871Z,64.10
2023-05-19T08:09:30.343Z,64.00
2023-05-19T08:14:33.698Z,63.00
2023-05-19T08:19:36.548Z,63.10
2023-05-19T08:24:39.344Z,60.70
2023-05-19T08:29:41.676Z,60.30
2023-05-19T08:34:44.029Z,58.40
2023-05-19T08:39:46.394Z,57.90
2023-05-19T08:44:48.824Z,57.90
2023-05-19T08:49:55.552Z,57.30
2023-05-19T08:55:09.642Z,55.90
2023-05-19T09:00:13.340Z,56.20
2023-05-19T09:05:17.489Z,56.00
2023-05-19T09:10:19.980Z,56.10
2023-05-19T09:15:28.392Z,56.00
2023-05-19T09:20:31.706Z,54.70
2023-05-19T09:25:34.373Z,54.90
2023-05-19T09:30:36.907Z,55.60
2023-05-19T09:35:39.287Z,54.00
2023-05-19T09:40:41.689Z,52.60
2023-05-19T09:45:44.239Z,53.50
2023-05-19T09:50:48.556Z,53.30
2023-05-19T09:55:51.681Z,53.20
2023-05-19T10:00:57.134Z,54.00
2023-05-19T10:06:01.584Z,53.80
2023-05-19T10:11:05.071Z,54.30
2023-05-19T10:16:09.515Z,55.60
2023-05-19T10:21:13.635Z,54.70
2023-05-19T10:26:16.667Z,55.90
2023-05-19T10:31:21.920Z,56.50
2023-05-19T10:36:42.864Z,57.30
2023-05-19T10:42:12.625Z,58.50
2023-05-19T10:47:15.783Z,57.50
2023-05-19T10:52:23.335Z,57.50
2023-05-19T10:57:28.124Z,57.90
2023-05-19T11:02:41.095Z,58.50
2023-05-19T11:08:06.223Z,59.00
2023-05-19T11:13:20.014Z,59.70
2023-05-19T11:18:22.487Z,59.10
2023-05-19T11:23:26.591Z,59.10
2023-05-19T11:28:30.651Z,59.60
2023-05-19T11:33:33.117Z,57.90
2023-05-19T11:38:35.659Z,57.30
2023-05-19T11:43:38.023Z,57.00
2023-05-19T11:48:40.660Z,53.90
2023-05-19T11:53:44.692Z,52.40
2023-05-19T11:58:47.093Z,50.40
2023-05-19T12:03:50.090Z,48.10
2023-05-19T12:08:54.353Z,46.90
2023-05-19T12:13:59.239Z,45.60
2023-05-19T12:19:05.364Z,45.70
2023-05-19T12:24:08.574Z,44.80
2023-05-19T12:29:13.477Z,44.90
2023-05-19T12:34:16.207Z,47.10
2023-05-19T12:39:19.558Z,49.60
2023-05-19T12:44:24.957Z,50.20
2023-05-19T12:49:27.392Z,51.50
2023-05-19T12:54:35.982Z,51.10
2023-05-19T12:59:39.114Z,52.00
2023-05-19T13:04:41.711Z,52.20
2023-05-19T13:09:44.783Z,53.20
2023-05-19T13:14:47.314Z,52.50
2023-05-19T13:19:49.759Z,53.70
2023-05-19T13:24:53.855Z,54.40
2023-05-19T13:29:56.297Z,54.50
2023-05-19T13:34:58.856Z,55.50
2023-05-19T13:40:02.006Z,55.70
2023-05-19T13:45:04.892Z,55.40
2023-05-19T13:50:07.980Z,56.10
2023-05-19T13:55:10.405Z,57.50
2023-05-19T14:00:13.166Z,58.00
2023-05-19T14:05:15.593Z,58.80
2023-05-19T14:10:17.998Z,59.30
2023-05-19T14:15:20.593Z,59.80
2023-05-19T14:20:22.967Z,59.80
2023-05-19T14:25:25.637Z,58.90
2023-05-19T14:30:28.037Z,59.40
2023-05-19T14:35:30.699Z,57.30
2023-05-19T14:40:33.280Z,56.60
2023-05-19T14:45:36.065Z,56.30
2023-05-19T14:50:38.854Z,58.40
2023-05-19T14:55:41.233Z,59.70
2023-05-19T15:00:43.936Z,60.40
2023-05-19T15:05:46.349Z,61.70
2023-05-19T15:10:49.799Z,62.40
2023-05-19T15:16:08.273Z,63.80
2023-05-19T15:21:17.823Z,65.50
2023-05-19T15:26:20.498Z,65.50
2023-05-19T15:31:22.977Z,65.90
2023-05-19T15:36:25.544Z,66.40
2023-05-19T15:41:27.916Z,67.10
2023-05-19T15:46:30.528Z,66.80
2023-05-19T15:51:33.065Z,67.50
2023-05-19T15:56:35.504Z,67.80
2023-05-19T16:01:38.006Z,68.70
2023-05-19T16:06:40.415Z,69.80
2023-05-19T16:11:42.738Z,70.80
2023-05-19T16:16:45.117Z,72.10
2023-05-19T16:21:47.758Z,70.90
2023-05-19T16:26:53.903Z,70.30
2023-05-19T16:31:56.667Z,71.30
2023-05-19T16:36:59.175Z,71.20
2023-05-19T16:42:01.807Z,71.70
2023-05-19T16:47:04.385Z,71.60
2023-05-19T16:52:07.928Z,72.80
2023-05-19T16:57:10.306Z,72.60
2023-05-19T17:02:12.675Z,73.80
2023-05-19T17:07:15.743Z,73.80
2023-05-19T17:12:18.186Z,73.30
2023-05-19T17:17:20.505Z,74.00
2023-05-19T17:22:23.005Z,75.10
2023-05-19T17:27:25.722Z,74.80
2023-05-19T17:32:28.301Z,76.20
2023-05-19T17:37:30.869Z,76.70
2023-05-19T17:42:33.296Z,77.20
2023-05-19T17:47:35.801Z,77.60
2023-05-19T17:52:40.427Z,78.20
2023-05-19T17:57:45.884Z,78.20
2023-05-19T18:02:48.600Z,79.40
2023-05-19T18:07:51.752Z,79.50
2023-05-19T18:12:54.089Z,80.80
2023-05-19T18:17:56.518Z,80.60
2023-05-19T18:22:59.053Z,80.40
2023-05-19T18:28:01.770Z,81.50
2023-05-19T18:33:04.318Z,82.10
2023-05-19T18:38:06.809Z,82.20
2023-05-19T18:43:09.463Z,81.80
2023-05-19T18:48:12.177Z,82.60
2023-05-19T18:53:14.681Z,83.20
2023-05-19T18:58:18.607Z,83.60
2023-05-19T19:03:21.053Z,83.60
2023-05-19T19:08:23.837Z,83.90
2023-05-19T19:13:26.337Z,84.50
2023-05-19T19:18:28.787Z,84.80
2023-05-19T19:23:31.817Z,85.30
2023-05-19T19:28:34.662Z,84.70
2023-05-19T19:33:37.178Z,84.80
2023-05-19T19:38:39.756Z,85.10
2023-05-19T19:43:42.170Z,85.50
2023-05-19T19:48:44.737Z,85.50
2023-05-19T19:53:47.218Z,86.50
2023-05-19T19:58:49.706Z,86.50
2023-05-19T20:03:52.182Z,87.10
2023-05-19T20:08:54.747Z,87.80
2023-05-19T20:13:57.162Z,88.00
2023-05-19T20:18:59.613Z,88.30
2023-05-19T20:24:02.357Z,88.30
2023-05-19T20:29:05.287Z,88.70
2023-05-19T20:34:07.711Z,89.20
2023-05-19T20:39:10.383Z,89.90
2023-05-19T20:44:12.836Z,90.00
2023-05-19T20:49:15.208Z,90.20
2023-05-19T20:54:19.676Z,90.10
2023-05-19T20:59:22.130Z,90.20
2023-05-19T21:04:24.637Z,90.20
2023-05-19T21:09:27.137Z,90.80
2023-05-19T21:14:29.641Z,91.00
2023-05-19T21:19:32.213Z,90.60
2023-05-19T21:24:34.795Z,90.60
2023-05-19T21:29:37.675Z,90.90
2023-05-19T21:34:40.149Z,91.00
2023-05-19T21:39:42.584Z,91.20
2023-05-19T21:44:45.006Z,91.30
2023-05-19T21:49:47.335Z,91.40
2023-05-19T21:54:51.949Z,91.70
2023-05-19T21:59:54.304Z,91.60
2023-05-19T22:04:56.707Z,91.60
2023-05-19T22:09:59.166Z,91.70
2023-05-19T22:15:02.878Z,91.80
2023-05-19T22:20:06.959Z,91.90
2023-05-19T22:25:09.546Z,92.10
2023-05-19T22:30:12.408Z,92.30
2023-05-19T22:35:14.952Z,92.60
2023-05-19T22:40:18.851Z,93.30
2023-05-19T22:45:21.371Z,93.80
2023-05-19T22:50:23.852Z,94.00
2023-05-19T22:55:26.370Z,94.10
2023-05-19T23:00:28.882Z,94.40
2023-05-19T23:05:31.442Z,95.00
2023-05-19T23:10:34.010Z,95.10
2023-05-19T23:15:36.827Z,95.00
2023-05-19T23:20:39.630Z,95.40
2023-05-19T23:25:42.655Z,95.70
2023-05-19T23:30:45.382Z,97.50
2023-05-19T23:35:48.024Z,99.10
2023-05-19T23:41:30.483Z,99.80
2023-05-19T23:46:32.985Z,99.90
2023-05-19T23:51:35.609Z,99.90
2023-05-19T23:56:38.167Z,99.90
